TOM8ET EDDS-LIRF
Flight info
| Callsign | TOM8ET |
|---|---|
| Flight time | 1h 13m |
| Altitude | 37000 |
| Route | ROTWE5B ROTWE Y126 TUBLO N850 NATOR DCT TRA DCT ARGAX DCT RESIA DCT BENUS DCT GAVRA/N0395F190 Y345 RITEB |
| Aircraft | B38M/M-SDE1FGHILORVWXY/HB1 |
Departure
| Time | 2026-05-05 12:57 |
|---|---|
| Airport | Stuttgart Airport (EDDS) |
Arrival
| Time | 2026-05-05 14:11 |
|---|---|
| Airport | Rome–Fiumicino Leonardo da Vinci International Airport (LIRF) |
| Time | Latitude | Longitude | Altitude | Speed | Heading |
|---|---|---|---|---|---|
| 2026-05-05 12:34 | 48.68962 | 9.19787 | 1288 ft | 0 kts | 343° |
| 2026-05-05 12:50 | 48.68947 | 9.19793 | 1288 ft | 4 kts | 343° |
| 2026-05-05 12:50 | 48.68924 | 9.19804 | 1288 ft | 4 kts | 347° |
| 2026-05-05 12:50 | 48.68902 | 9.19801 | 1288 ft | 4 kts | 43° |
| 2026-05-05 12:51 | 48.68891 | 9.19769 | 1288 ft | 2 kts | 74° |
| 2026-05-05 12:51 | 48.68889 | 9.19759 | 1288 ft | 0 kts | 74° |
| 2026-05-05 12:54 | 48.68893 | 9.19781 | 1288 ft | 7 kts | 74° |
| 2026-05-05 12:54 | 48.68869 | 9.19881 | 1288 ft | 15 kts | 154° |
| 2026-05-05 12:55 | 48.68762 | 9.19950 | 1288 ft | 16 kts | 152° |
| 2026-05-05 12:55 | 48.68714 | 9.19975 | 1288 ft | 0 kts | 164° |
| 2026-05-05 12:55 | 48.68674 | 9.19993 | 1288 ft | 11 kts | 164° |
| 2026-05-05 12:56 | 48.68611 | 9.20021 | 1288 ft | 17 kts | 161° |
| 2026-05-05 12:56 | 48.68584 | 9.20084 | 1288 ft | 6 kts | 77° |
| 2026-05-05 12:56 | 48.68617 | 9.20246 | 1288 ft | 44 kts | 75° |
| 2026-05-05 12:56 | 48.68778 | 9.21091 | 1288 ft | 121 kts | 75° |
| 2026-05-05 12:57 | 48.69090 | 9.22621 | 1305 ft | 180 kts | 70° |
| 2026-05-05 12:57 | 48.69484 | 9.24573 | 1775 ft | 207 kts | 73° |
| 2026-05-05 12:57 | 48.69902 | 9.26796 | 2450 ft | 225 kts | 74° |
| 2026-05-05 12:57 | 48.70341 | 9.29054 | 3478 ft | 227 kts | 73° |
| 2026-05-05 12:58 | 48.70822 | 9.31452 | 4025 ft | 252 kts | 74° |
| 2026-05-05 12:58 | 48.71170 | 9.34101 | 4892 ft | 258 kts | 90° |
| 2026-05-05 12:58 | 48.70953 | 9.36810 | 5833 ft | 260 kts | 111° |
| 2026-05-05 12:58 | 48.70106 | 9.39179 | 6884 ft | 257 kts | 132° |
| 2026-05-05 12:59 | 48.68734 | 9.40914 | 7762 ft | 259 kts | 155° |
| 2026-05-05 12:59 | 48.67014 | 9.41594 | 8732 ft | 259 kts | 179° |
| 2026-05-05 12:59 | 48.65246 | 9.41103 | 9678 ft | 257 kts | 207° |
| 2026-05-05 13:00 | 48.62957 | 9.37161 | 11436 ft | 270 kts | 248° |
| 2026-05-05 13:00 | 48.62478 | 9.34332 | 11954 ft | 288 kts | 255° |
| 2026-05-05 13:01 | 48.60874 | 9.24609 | 13106 ft | 344 kts | 253° |
| 2026-05-05 13:01 | 48.60282 | 9.21043 | 13670 ft | 355 kts | 253° |
| 2026-05-05 13:01 | 48.59679 | 9.17398 | 14325 ft | 360 kts | 253° |
| 2026-05-05 13:01 | 48.58907 | 9.13856 | 14967 ft | 360 kts | 238° |
| 2026-05-05 13:02 | 48.57278 | 9.11045 | 15698 ft | 357 kts | 214° |
| 2026-05-05 13:02 | 48.55035 | 9.09444 | 16324 ft | 360 kts | 197° |
| 2026-05-05 13:02 | 48.52568 | 9.08718 | 16977 ft | 364 kts | 183° |
| 2026-05-05 13:02 | 48.50033 | 9.08952 | 17650 ft | 367 kts | 172° |
| 2026-05-05 13:03 | 48.47573 | 9.10038 | 18271 ft | 371 kts | 161° |
| 2026-05-05 13:03 | 48.45123 | 9.11311 | 18753 ft | 376 kts | 162° |
| 2026-05-05 13:03 | 48.42635 | 9.12559 | 19330 ft | 378 kts | 162° |
| 2026-05-05 13:03 | 48.40130 | 9.13799 | 19886 ft | 380 kts | 162° |
| 2026-05-05 13:04 | 48.38454 | 9.14621 | 20252 ft | 382 kts | 162° |
| 2026-05-05 13:04 | 48.35048 | 9.16287 | 20975 ft | 387 kts | 162° |
| 2026-05-05 13:04 | 48.33350 | 9.17117 | 21342 ft | 388 kts | 162° |
| 2026-05-05 13:04 | 48.30777 | 9.18371 | 21865 ft | 391 kts | 162° |
| 2026-05-05 13:05 | 48.28176 | 9.19639 | 22388 ft | 394 kts | 163° |
| 2026-05-05 13:05 | 48.25563 | 9.20911 | 22886 ft | 398 kts | 163° |
| 2026-05-05 13:05 | 48.22919 | 9.22195 | 23405 ft | 401 kts | 163° |
| 2026-05-05 13:05 | 48.20258 | 9.23487 | 23874 ft | 403 kts | 162° |
| 2026-05-05 13:06 | 48.17581 | 9.24785 | 24323 ft | 405 kts | 162° |
| 2026-05-05 13:06 | 48.14892 | 9.26088 | 24791 ft | 407 kts | 163° |
| 2026-05-05 13:06 | 48.12196 | 9.27393 | 25237 ft | 409 kts | 163° |
| 2026-05-05 13:06 | 48.09477 | 9.28707 | 25661 ft | 411 kts | 163° |
| 2026-05-05 13:07 | 48.06752 | 9.30023 | 26082 ft | 412 kts | 162° |
| 2026-05-05 13:07 | 48.05864 | 9.30451 | 26220 ft | 413 kts | 163° |
| 2026-05-05 13:07 | 48.04445 | 9.31135 | 26435 ft | 414 kts | 163° |
| 2026-05-05 13:08 | 48.01703 | 9.32457 | 26851 ft | 415 kts | 163° |
| 2026-05-05 13:08 | 47.98937 | 9.33789 | 27238 ft | 418 kts | 163° |
| 2026-05-05 13:08 | 47.96205 | 9.35102 | 27613 ft | 419 kts | 163° |
| 2026-05-05 13:08 | 47.93418 | 9.36440 | 27965 ft | 422 kts | 163° |
| 2026-05-05 13:09 | 47.90625 | 9.37780 | 28332 ft | 424 kts | 163° |
| 2026-05-05 13:09 | 47.87811 | 9.39128 | 28679 ft | 426 kts | 163° |
| 2026-05-05 13:09 | 47.84983 | 9.40483 | 29067 ft | 428 kts | 163° |
| 2026-05-05 13:09 | 47.82648 | 9.41598 | 29388 ft | 429 kts | 163° |
| 2026-05-05 13:10 | 47.79935 | 9.42894 | 29728 ft | 431 kts | 163° |
| 2026-05-05 13:10 | 47.77072 | 9.44260 | 30040 ft | 433 kts | 163° |
| 2026-05-05 13:10 | 47.74201 | 9.45628 | 30355 ft | 434 kts | 163° |
| 2026-05-05 13:10 | 47.71319 | 9.47000 | 30735 ft | 434 kts | 163° |
| 2026-05-05 13:11 | 47.68450 | 9.48365 | 31112 ft | 433 kts | 163° |
| 2026-05-05 13:11 | 47.65579 | 9.49729 | 31476 ft | 433 kts | 163° |
| 2026-05-05 13:11 | 47.62711 | 9.51090 | 31837 ft | 433 kts | 163° |
| 2026-05-05 13:11 | 47.59839 | 9.52451 | 32193 ft | 433 kts | 165° |
| 2026-05-05 13:12 | 47.56968 | 9.53810 | 32467 ft | 435 kts | 165° |
| 2026-05-05 13:12 | 47.54090 | 9.55171 | 32809 ft | 434 kts | 165° |
| 2026-05-05 13:12 | 47.51204 | 9.56534 | 33151 ft | 434 kts | 165° |
| 2026-05-05 13:12 | 47.48323 | 9.57893 | 33493 ft | 434 kts | 165° |
| 2026-05-05 13:13 | 47.45448 | 9.59248 | 33823 ft | 434 kts | 165° |
| 2026-05-05 13:13 | 47.42566 | 9.60604 | 34116 ft | 434 kts | 165° |
| 2026-05-05 13:13 | 47.39695 | 9.61954 | 34378 ft | 434 kts | 166° |
| 2026-05-05 13:13 | 47.36814 | 9.63307 | 34614 ft | 435 kts | 166° |
| 2026-05-05 13:14 | 47.33922 | 9.64663 | 34806 ft | 436 kts | 166° |
| 2026-05-05 13:14 | 47.31026 | 9.66020 | 34874 ft | 437 kts | 166° |
| 2026-05-05 13:14 | 47.25256 | 9.68718 | 34848 ft | 435 kts | 166° |
| 2026-05-05 13:15 | 47.19487 | 9.71409 | 34858 ft | 435 kts | 166° |
| 2026-05-05 13:15 | 47.13722 | 9.74092 | 34868 ft | 435 kts | 167° |
| 2026-05-05 13:16 | 47.07980 | 9.76759 | 34865 ft | 435 kts | 167° |
| 2026-05-05 13:16 | 47.02190 | 9.79442 | 34877 ft | 436 kts | 167° |
| 2026-05-05 13:17 | 46.96405 | 9.82116 | 34879 ft | 435 kts | 167° |
| 2026-05-05 13:17 | 46.90641 | 9.84775 | 34875 ft | 434 kts | 168° |
| 2026-05-05 13:18 | 46.84873 | 9.87429 | 34894 ft | 435 kts | 168° |
| 2026-05-05 13:18 | 46.82056 | 9.88723 | 34941 ft | 436 kts | 168° |
| 2026-05-05 13:19 | 46.76264 | 9.91326 | 34956 ft | 435 kts | 167° |
| 2026-05-05 13:19 | 46.70483 | 9.94021 | 34942 ft | 436 kts | 168° |
| 2026-05-05 13:20 | 46.64703 | 9.96664 | 34981 ft | 436 kts | 168° |
| 2026-05-05 13:20 | 46.58945 | 9.99289 | 34975 ft | 436 kts | 168° |
| 2026-05-05 13:21 | 46.53111 | 10.01939 | 34966 ft | 435 kts | 168° |
| 2026-05-05 13:21 | 46.47380 | 10.04681 | 34930 ft | 443 kts | 160° |
| 2026-05-05 13:22 | 46.41911 | 10.08862 | 34894 ft | 446 kts | 158° |
| 2026-05-05 13:22 | 46.36396 | 10.13033 | 34993 ft | 450 kts | 158° |
| 2026-05-05 13:23 | 46.30858 | 10.17230 | 34964 ft | 449 kts | 158° |
| 2026-05-05 13:23 | 46.25323 | 10.21415 | 34987 ft | 449 kts | 158° |
| 2026-05-05 13:24 | 46.19785 | 10.25593 | 34979 ft | 448 kts | 158° |
| 2026-05-05 13:24 | 46.14241 | 10.29765 | 34938 ft | 448 kts | 158° |
| 2026-05-05 13:25 | 46.08706 | 10.33922 | 35014 ft | 449 kts | 158° |
| 2026-05-05 13:25 | 46.03171 | 10.38069 | 34980 ft | 449 kts | 158° |
| 2026-05-05 13:26 | 45.97611 | 10.42226 | 34992 ft | 451 kts | 158° |
| 2026-05-05 13:26 | 45.92043 | 10.46379 | 34989 ft | 451 kts | 158° |
| 2026-05-05 13:27 | 45.86470 | 10.50525 | 34966 ft | 450 kts | 158° |
| 2026-05-05 13:27 | 45.80910 | 10.54654 | 34989 ft | 450 kts | 158° |
| 2026-05-05 13:28 | 45.75352 | 10.58771 | 34976 ft | 450 kts | 158° |
| 2026-05-05 13:28 | 45.69787 | 10.62885 | 34969 ft | 450 kts | 158° |
| 2026-05-05 13:29 | 45.64241 | 10.66975 | 35002 ft | 452 kts | 158° |
| 2026-05-05 13:29 | 45.58648 | 10.71090 | 34989 ft | 451 kts | 158° |
| 2026-05-05 13:30 | 45.53061 | 10.75191 | 34994 ft | 452 kts | 158° |
| 2026-05-05 13:30 | 45.47473 | 10.79285 | 34992 ft | 451 kts | 158° |
| 2026-05-05 13:31 | 45.41876 | 10.83375 | 34988 ft | 451 kts | 158° |
| 2026-05-05 13:31 | 45.36294 | 10.87446 | 34993 ft | 451 kts | 158° |
| 2026-05-05 13:32 | 45.30701 | 10.91515 | 34988 ft | 453 kts | 158° |
| 2026-05-05 13:32 | 45.25080 | 10.95596 | 34965 ft | 453 kts | 158° |
| 2026-05-05 13:33 | 45.19468 | 10.99660 | 34965 ft | 453 kts | 158° |
| 2026-05-05 13:33 | 45.13890 | 11.03692 | 34966 ft | 453 kts | 158° |
| 2026-05-05 13:34 | 45.08237 | 11.07768 | 34966 ft | 453 kts | 158° |
| 2026-05-05 13:34 | 45.02624 | 11.11808 | 34960 ft | 453 kts | 158° |
| 2026-05-05 13:35 | 44.97046 | 11.15815 | 34971 ft | 452 kts | 158° |
| 2026-05-05 13:35 | 44.91430 | 11.19831 | 34970 ft | 451 kts | 160° |
| 2026-05-05 13:36 | 44.85625 | 11.23021 | 34970 ft | 448 kts | 164° |
| 2026-05-05 13:36 | 44.79828 | 11.26240 | 34959 ft | 448 kts | 164° |
| 2026-05-05 13:37 | 44.74038 | 11.29479 | 34962 ft | 448 kts | 164° |
| 2026-05-05 13:37 | 44.68248 | 11.32715 | 34964 ft | 447 kts | 164° |
| 2026-05-05 13:38 | 44.62454 | 11.35946 | 34956 ft | 447 kts | 164° |
| 2026-05-05 13:38 | 44.56664 | 11.39167 | 34956 ft | 449 kts | 164° |
| 2026-05-05 13:39 | 44.50848 | 11.42397 | 34965 ft | 449 kts | 164° |
| 2026-05-05 13:39 | 44.45032 | 11.45619 | 34964 ft | 449 kts | 164° |
| 2026-05-05 13:40 | 44.39224 | 11.48829 | 34949 ft | 449 kts | 164° |
| 2026-05-05 13:40 | 44.33401 | 11.52042 | 34967 ft | 450 kts | 164° |
| 2026-05-05 13:41 | 44.27577 | 11.55248 | 34942 ft | 449 kts | 164° |
| 2026-05-05 13:41 | 44.21753 | 11.58447 | 34953 ft | 449 kts | 164° |
| 2026-05-05 13:42 | 44.15944 | 11.61632 | 34955 ft | 449 kts | 164° |
| 2026-05-05 13:42 | 44.10162 | 11.64794 | 34961 ft | 449 kts | 164° |
| 2026-05-05 13:43 | 44.04343 | 11.67970 | 34968 ft | 450 kts | 164° |
| 2026-05-05 13:43 | 43.98501 | 11.71152 | 34984 ft | 453 kts | 165° |
| 2026-05-05 13:44 | 43.92633 | 11.74342 | 34972 ft | 452 kts | 165° |
| 2026-05-05 13:44 | 43.86775 | 11.77519 | 34981 ft | 452 kts | 165° |
| 2026-05-05 13:45 | 43.80913 | 11.80693 | 34982 ft | 453 kts | 165° |
| 2026-05-05 13:45 | 43.74948 | 11.83311 | 35000 ft | 449 kts | 173° |
| 2026-05-05 13:46 | 43.68884 | 11.85262 | 34451 ft | 446 kts | 173° |
| 2026-05-05 13:46 | 43.65841 | 11.86234 | 33638 ft | 449 kts | 173° |
| 2026-05-05 13:46 | 43.62787 | 11.87209 | 32787 ft | 451 kts | 173° |
| 2026-05-05 13:47 | 43.59722 | 11.88185 | 31996 ft | 451 kts | 173° |
| 2026-05-05 13:47 | 43.56666 | 11.89158 | 31220 ft | 452 kts | 173° |
| 2026-05-05 13:47 | 43.53600 | 11.90132 | 30389 ft | 453 kts | 172° |
| 2026-05-05 13:47 | 43.50514 | 11.91111 | 29395 ft | 456 kts | 172° |
| 2026-05-05 13:48 | 43.47410 | 11.92096 | 28435 ft | 459 kts | 172° |
| 2026-05-05 13:48 | 43.44303 | 11.93081 | 27681 ft | 456 kts | 172° |
| 2026-05-05 13:48 | 43.41228 | 11.94054 | 27025 ft | 451 kts | 172° |
| 2026-05-05 13:48 | 43.38177 | 11.95018 | 26334 ft | 452 kts | 172° |
| 2026-05-05 13:49 | 43.35106 | 11.95988 | 25681 ft | 454 kts | 172° |
| 2026-05-05 13:49 | 43.32024 | 11.96961 | 24983 ft | 453 kts | 172° |
| 2026-05-05 13:49 | 43.29005 | 11.97912 | 24327 ft | 450 kts | 172° |
| 2026-05-05 13:49 | 43.25955 | 11.98873 | 23639 ft | 449 kts | 172° |
| 2026-05-05 13:50 | 43.22919 | 11.99828 | 22872 ft | 446 kts | 172° |
| 2026-05-05 13:50 | 43.19906 | 12.00775 | 22170 ft | 442 kts | 172° |
| 2026-05-05 13:50 | 43.16923 | 12.01712 | 21520 ft | 437 kts | 171° |
| 2026-05-05 13:50 | 43.13970 | 12.02637 | 20878 ft | 433 kts | 171° |
| 2026-05-05 13:51 | 43.11046 | 12.03553 | 20243 ft | 429 kts | 171° |
| 2026-05-05 13:51 | 43.09127 | 12.04154 | 19816 ft | 427 kts | 171° |
| 2026-05-05 13:51 | 43.06240 | 12.05057 | 19190 ft | 424 kts | 171° |
| 2026-05-05 13:51 | 43.03375 | 12.05953 | 18566 ft | 421 kts | 171° |
| 2026-05-05 13:52 | 43.00525 | 12.06842 | 17893 ft | 418 kts | 171° |
| 2026-05-05 13:52 | 42.97705 | 12.07722 | 17234 ft | 415 kts | 171° |
| 2026-05-05 13:52 | 42.93960 | 12.08888 | 16408 ft | 409 kts | 171° |
| 2026-05-05 13:52 | 42.92135 | 12.09456 | 16034 ft | 406 kts | 171° |
| 2026-05-05 13:53 | 42.89400 | 12.10307 | 15714 ft | 396 kts | 171° |
| 2026-05-05 13:53 | 42.86752 | 12.11130 | 15475 ft | 384 kts | 171° |
| 2026-05-05 13:53 | 42.84176 | 12.11930 | 15188 ft | 376 kts | 171° |
| 2026-05-05 13:53 | 42.81662 | 12.12710 | 14950 ft | 367 kts | 171° |
| 2026-05-05 13:54 | 42.79207 | 12.13470 | 14743 ft | 357 kts | 171° |
| 2026-05-05 13:54 | 42.76821 | 12.14210 | 14575 ft | 347 kts | 171° |
| 2026-05-05 13:54 | 42.74501 | 12.14927 | 14418 ft | 337 kts | 171° |
| 2026-05-05 13:54 | 42.72242 | 12.15627 | 14293 ft | 329 kts | 171° |
| 2026-05-05 13:55 | 42.70035 | 12.16317 | 14092 ft | 324 kts | 169° |
| 2026-05-05 13:55 | 42.67871 | 12.17152 | 13739 ft | 323 kts | 168° |
| 2026-05-05 13:55 | 42.65716 | 12.17986 | 13359 ft | 320 kts | 168° |
| 2026-05-05 13:55 | 42.63582 | 12.18804 | 13004 ft | 317 kts | 168° |
| 2026-05-05 13:56 | 42.61472 | 12.19608 | 12688 ft | 313 kts | 168° |
| 2026-05-05 13:56 | 42.59394 | 12.20398 | 12383 ft | 309 kts | 169° |
| 2026-05-05 13:56 | 42.57347 | 12.21176 | 12043 ft | 301 kts | 169° |
| 2026-05-05 13:56 | 42.55353 | 12.21933 | 11750 ft | 295 kts | 169° |
| 2026-05-05 13:57 | 42.53390 | 12.22677 | 11436 ft | 291 kts | 169° |
| 2026-05-05 13:57 | 42.51455 | 12.23411 | 11137 ft | 286 kts | 169° |
| 2026-05-05 13:57 | 42.49552 | 12.24131 | 10847 ft | 282 kts | 169° |
| 2026-05-05 13:57 | 42.47707 | 12.24829 | 10552 ft | 277 kts | 169° |
| 2026-05-05 13:58 | 42.45858 | 12.25528 | 10291 ft | 277 kts | 169° |
| 2026-05-05 13:58 | 42.43973 | 12.26240 | 10139 ft | 276 kts | 169° |
| 2026-05-05 13:58 | 42.42148 | 12.26929 | 9971 ft | 277 kts | 169° |
| 2026-05-05 13:58 | 42.40267 | 12.27638 | 9643 ft | 277 kts | 169° |
| 2026-05-05 13:59 | 42.36588 | 12.29026 | 9037 ft | 275 kts | 168° |
| 2026-05-05 13:59 | 42.34750 | 12.29724 | 8703 ft | 274 kts | 168° |
| 2026-05-05 14:00 | 42.31124 | 12.31095 | 8159 ft | 266 kts | 169° |
| 2026-05-05 14:00 | 42.29353 | 12.31764 | 7886 ft | 263 kts | 169° |
| 2026-05-05 14:00 | 42.27598 | 12.32425 | 7611 ft | 260 kts | 168° |
| 2026-05-05 14:00 | 42.25861 | 12.33080 | 7338 ft | 257 kts | 168° |
| 2026-05-05 14:01 | 42.24399 | 12.33635 | 7116 ft | 255 kts | 169° |
| 2026-05-05 14:01 | 42.22900 | 12.34199 | 6899 ft | 255 kts | 169° |
| 2026-05-05 14:01 | 42.21185 | 12.34846 | 6626 ft | 258 kts | 168° |
| 2026-05-05 14:01 | 42.20503 | 12.35102 | 6486 ft | 260 kts | 168° |
| 2026-05-05 14:02 | 42.18795 | 12.35740 | 6199 ft | 263 kts | 167° |
| 2026-05-05 14:02 | 42.17037 | 12.36408 | 5919 ft | 261 kts | 168° |
| 2026-05-05 14:02 | 42.15294 | 12.37058 | 5624 ft | 259 kts | 167° |
| 2026-05-05 14:02 | 42.13544 | 12.37370 | 5309 ft | 252 kts | 189° |
| 2026-05-05 14:03 | 42.11936 | 12.36555 | 5059 ft | 246 kts | 216° |
| 2026-05-05 14:03 | 42.10745 | 12.34945 | 4801 ft | 242 kts | 229° |
| 2026-05-05 14:03 | 42.09704 | 12.33211 | 4624 ft | 231 kts | 230° |
| 2026-05-05 14:03 | 42.08748 | 12.31583 | 4552 ft | 212 kts | 230° |
| 2026-05-05 14:04 | 42.07872 | 12.30077 | 4446 ft | 199 kts | 231° |
| 2026-05-05 14:04 | 42.07040 | 12.28629 | 4338 ft | 194 kts | 231° |
| 2026-05-05 14:04 | 42.06206 | 12.27174 | 4211 ft | 195 kts | 231° |
| 2026-05-05 14:04 | 42.05402 | 12.25757 | 4068 ft | 186 kts | 230° |
| 2026-05-05 14:05 | 42.04644 | 12.24424 | 3880 ft | 178 kts | 230° |
| 2026-05-05 14:05 | 42.03908 | 12.23126 | 3657 ft | 170 kts | 230° |
| 2026-05-05 14:05 | 42.03184 | 12.21850 | 3221 ft | 173 kts | 229° |
| 2026-05-05 14:05 | 42.02468 | 12.20594 | 2892 ft | 166 kts | 225° |
| 2026-05-05 14:06 | 42.01536 | 12.19829 | 2521 ft | 157 kts | 187° |
| 2026-05-05 14:06 | 42.00431 | 12.19809 | 2560 ft | 163 kts | 176° |
| 2026-05-05 14:06 | 41.99298 | 12.20051 | 2539 ft | 166 kts | 170° |
| 2026-05-05 14:06 | 41.98173 | 12.20449 | 2510 ft | 168 kts | 166° |
| 2026-05-05 14:07 | 41.97076 | 12.20904 | 2505 ft | 155 kts | 166° |
| 2026-05-05 14:07 | 41.96097 | 12.21315 | 2349 ft | 143 kts | 166° |
| 2026-05-05 14:07 | 41.95160 | 12.21709 | 2176 ft | 139 kts | 166° |
| 2026-05-05 14:07 | 41.94267 | 12.22085 | 2036 ft | 129 kts | 166° |
| 2026-05-05 14:08 | 41.93422 | 12.22439 | 1853 ft | 126 kts | 165° |
| 2026-05-05 14:08 | 41.92586 | 12.22791 | 1734 ft | 126 kts | 163° |
| 2026-05-05 14:08 | 41.91751 | 12.23143 | 1520 ft | 125 kts | 162° |
| 2026-05-05 14:08 | 41.90932 | 12.23497 | 1415 ft | 122 kts | 164° |
| 2026-05-05 14:09 | 41.90123 | 12.23856 | 1195 ft | 121 kts | 164° |
| 2026-05-05 14:09 | 41.89324 | 12.24192 | 1032 ft | 120 kts | 165° |
| 2026-05-05 14:09 | 41.88517 | 12.24498 | 841 ft | 119 kts | 165° |
| 2026-05-05 14:09 | 41.87696 | 12.24827 | 740 ft | 130 kts | 162° |
| 2026-05-05 14:10 | 41.86833 | 12.25192 | 637 ft | 133 kts | 161° |
| 2026-05-05 14:10 | 41.85932 | 12.25582 | 401 ft | 136 kts | 159° |
| 2026-05-05 14:10 | 41.85042 | 12.25972 | 172 ft | 136 kts | 161° |
| 2026-05-05 14:10 | 41.84147 | 12.26336 | 24 ft | 127 kts | 161° |
| 2026-05-05 14:11 | 41.83554 | 12.26587 | 16 ft | 36 kts | 163° |
| 2026-05-05 14:11 | 41.83369 | 12.26647 | 16 ft | 30 kts | 173° |
| 2026-05-05 14:11 | 41.83151 | 12.26643 | 15 ft | 32 kts | 185° |
| 2026-05-05 14:11 | 41.83043 | 12.26608 | 18 ft | 31 kts | 195° |
| 2026-05-05 14:12 | 41.82834 | 12.26569 | 16 ft | 30 kts | 172° |
| 2026-05-05 14:12 | 41.82638 | 12.26647 | 18 ft | 28 kts | 162° |
| 2026-05-05 14:12 | 41.82448 | 12.26726 | 15 ft | 30 kts | 162° |
| 2026-05-05 14:12 | 41.82246 | 12.26811 | 13 ft | 31 kts | 162° |
| 2026-05-05 14:13 | 41.82036 | 12.26900 | 14 ft | 31 kts | 162° |
| 2026-05-05 14:13 | 41.81826 | 12.26987 | 15 ft | 32 kts | 163° |
| 2026-05-05 14:13 | 41.81621 | 12.27074 | 21 ft | 31 kts | 162° |
| 2026-05-05 14:13 | 41.81418 | 12.27159 | 22 ft | 31 kts | 163° |
| 2026-05-05 14:14 | 41.81203 | 12.27248 | 16 ft | 33 kts | 163° |
| 2026-05-05 14:14 | 41.80979 | 12.27342 | 16 ft | 34 kts | 165° |
| 2026-05-05 14:14 | 41.80766 | 12.27321 | 15 ft | 20 kts | 188° |
| 2026-05-05 14:14 | 41.80658 | 12.27223 | 16 ft | 20 kts | 249° |
| 2026-05-05 14:15 | 41.80604 | 12.27040 | 15 ft | 22 kts | 251° |
| 2026-05-05 14:15 | 41.80550 | 12.26842 | 16 ft | 23 kts | 249° |
| 2026-05-05 14:15 | 41.80491 | 12.26633 | 16 ft | 19 kts | 251° |
| 2026-05-05 14:15 | 41.80462 | 12.26524 | 16 ft | 13 kts | 250° |
| 2026-05-05 14:16 | 41.80426 | 12.26403 | 16 ft | 16 kts | 237° |
| 2026-05-05 14:16 | 41.80367 | 12.26362 | 15 ft | 6 kts | 180° |
| 2026-05-05 14:16 | 41.80320 | 12.26376 | 16 ft | 7 kts | 156° |
| 2026-05-05 14:16 | 41.80270 | 12.26403 | 17 ft | 8 kts | 160° |
| 2026-05-05 14:17 | 41.80215 | 12.26407 | 18 ft | 8 kts | 193° |
| 2026-05-05 14:17 | 41.80157 | 12.26374 | 19 ft | 10 kts | 206° |
| 2026-05-05 14:17 | 41.80092 | 12.26331 | 21 ft | 11 kts | 206° |
| 2026-05-05 14:17 | 41.80016 | 12.26281 | 22 ft | 13 kts | 206° |
| 2026-05-05 14:18 | 41.79931 | 12.26231 | 21 ft | 14 kts | 204° |
| 2026-05-05 14:18 | 41.79838 | 12.26176 | 21 ft | 7 kts | 205° |
| 2026-05-05 14:18 | 41.79809 | 12.26157 | 23 ft | 6 kts | 207° |
| 2026-05-05 14:18 | 41.79802 | 12.26120 | 21 ft | 5 kts | 292° |
| 2026-05-05 14:19 | 41.79826 | 12.26065 | 21 ft | 8 kts | 321° |
| 2026-05-05 14:19 | 41.79861 | 12.25996 | 23 ft | 10 kts | 284° |
| 2026-05-05 14:19 | 41.79825 | 12.25936 | 21 ft | 4 kts | 231° |
| 2026-05-05 14:19 | 41.79828 | 12.25886 | 25 ft | 8 kts | 290° |
| 2026-05-05 14:20 | 41.79848 | 12.25804 | 21 ft | 9 kts | 249° |
| 2026-05-05 14:20 | 41.79792 | 12.25763 | 21 ft | 10 kts | 205° |
| 2026-05-05 14:20 | 41.79731 | 12.25724 | 22 ft | 7 kts | 205° |
| 2026-05-05 14:20 | 41.79687 | 12.25696 | 22 ft | 0 kts | 214° |
| 2026-05-05 14:21 | 41.79684 | 12.25689 | 22 ft | 2 kts | 247° |
| 2026-05-05 14:21 | 41.79684 | 12.25670 | 21 ft | 1 kts | 273° |
| 2026-05-05 14:21 | 41.79686 | 12.25642 | 21 ft | 5 kts | 276° |
| 2026-05-05 14:21 | 41.79692 | 12.25620 | 21 ft | 0 kts | 295° |